Time;durP1;ratioP1;P1;durP2;ratioP2;P2;SDS_P1;SDS_P2;PMS_P1;PMS_P2;Temp;Humidity;BMP_temperature;BMP_pressure;BME280_temperature;BME280_humidity;BME280_pressure;Samples;Min_cycle;Max_cycle;Signal;HPM_P1;HPM_P2
2021/09/18 00:02:23;;;;;;;242.47;225.97;;;17.20;99.90;;;;;;5042437;28;20407;-84
2021/09/18 00:04:49;;;;;;;230.90;214.67;;;17.10;99.90;;;;;;5060873;28;20407;-84
2021/09/18 00:07:15;;;;;;;246.73;230.10;;;17.10;99.90;;;;;;5042928;28;20192;-85
2021/09/18 00:09:41;;;;;;;244.50;228.20;;;17.10;99.90;;;;;;5061341;28;20399;-84
2021/09/18 00:12:08;;;;;;;248.13;231.53;;;17.10;99.90;;;;;;5060094;28;20835;-84
2021/09/18 00:14:33;;;;;;;265.53;247.97;;;17.10;99.90;;;;;;5042009;28;20165;-84
2021/09/18 00:16:59;;;;;;;250.17;233.47;;;17.00;99.90;;;;;;5060069;28;20434;-84
2021/09/18 00:19:25;;;;;;;271.20;253.63;;;17.10;99.90;;;;;;5060444;28;20536;-84
2021/09/18 00:21:50;;;;;;;244.03;227.67;;;17.00;99.90;;;;;;5060949;28;20169;-84
2021/09/18 00:24:16;;;;;;;269.10;251.67;;;16.90;99.90;;;;;;5042835;28;20219;-84
2021/09/18 00:26:42;;;;;;;238.17;221.10;;;17.00;99.90;;;;;;5060570;28;20184;-84
2021/09/18 00:29:08;;;;;;;270.83;253.63;;;16.90;99.90;;;;;;5060335;28;20256;-84
2021/09/18 00:31:33;;;;;;;266.17;249.00;;;16.90;99.90;;;;;;5061228;28;20468;-84
2021/09/18 00:33:59;;;;;;;250.47;233.77;;;16.80;99.90;;;;;;5060802;28;20172;-84
2021/09/18 00:36:25;;;;;;;299.37;280.57;;;16.90;99.90;;;;;;5060428;28;20230;-84
2021/09/18 00:38:51;;;;;;;267.00;249.90;;;16.80;99.90;;;;;;5059882;28;20486;-84
2021/09/18 00:41:17;;;;;;;282.40;264.53;;;16.80;99.90;;;;;;5042327;28;20177;-84
2021/09/18 00:43:50;;;;;;;282.30;264.63;;;16.80;99.90;;;;;;5060435;28;20251;-85
2021/09/18 00:46:16;;;;;;;256.73;239.30;;;16.80;99.90;;;;;;5060331;28;20431;-84
2021/09/18 00:48:42;;;;;;;278.77;260.70;;;16.70;99.90;;;;;;5041969;28;20411;-84
2021/09/18 00:51:07;;;;;;;280.20;262.63;;;16.60;99.90;;;;;;5042016;28;20238;-84
2021/09/18 00:53:33;;;;;;;232.03;215.97;;;16.70;99.90;;;;;;5042458;28;20191;-84
2021/09/18 00:56:00;;;;;;;291.20;273.07;;;16.70;99.90;;;;;;5059831;28;20172;-84
2021/09/18 00:58:25;;;;;;;262.43;244.77;;;16.70;99.90;;;;;;5041992;28;20157;-84
2021/09/18 01:00:51;;;;;;;258.93;241.50;;;16.60;99.90;;;;;;5059810;28;20439;-84
2021/09/18 01:03:17;;;;;;;244.20;227.43;;;16.60;99.90;;;;;;5059282;28;20413;-84
2021/09/18 01:05:42;;;;;;;237.93;221.77;;;16.50;99.90;;;;;;5059457;28;20169;-84
2021/09/18 01:08:11;;;;;;;264.37;246.77;;;16.60;99.90;;;;;;5042004;28;20507;-84
2021/09/18 01:10:37;;;;;;;245.20;228.57;;;16.50;99.90;;;;;;5059125;28;20216;-84
2021/09/18 01:13:06;;;;;;;247.90;231.40;;;16.50;99.90;;;;;;5059503;28;20413;-84
2021/09/18 01:15:34;;;;;;;297.60;279.43;;;16.50;99.90;;;;;;5059629;28;20426;-84
2021/09/18 01:18:01;;;;;;;230.03;213.37;;;16.50;99.90;;;;;;5059702;28;20977;-84
2021/09/18 01:20:27;;;;;;;256.83;239.50;;;16.50;99.90;;;;;;5040945;28;20446;-84
2021/09/18 01:22:56;;;;;;;224.13;207.83;;;16.50;99.90;;;;;;5059713;28;20405;-84
2021/09/18 01:25:22;;;;;;;273.67;255.83;;;16.40;99.90;;;;;;5059527;28;20406;-84
2021/09/18 01:27:48;;;;;;;258.20;240.37;;;16.40;99.90;;;;;;5059152;28;20760;-84
2021/09/18 01:30:40;;;;;;;286.70;268.47;;;16.40;99.90;;;;;;5041250;28;20238;-84
2021/09/18 01:33:07;;;;;;;300.03;281.10;;;16.40;99.90;;;;;;5055610;28;20418;-85
2021/09/18 01:35:33;;;;;;;274.67;257.23;;;16.40;99.90;;;;;;5040847;28;20927;-85
2021/09/18 01:37:59;;;;;;;289.50;271.93;;;16.40;99.90;;;;;;5040801;28;20487;-84
2021/09/18 01:40:27;;;;;;;247.97;230.40;;;16.40;99.90;;;;;;5059171;28;20406;-84
2021/09/18 01:42:54;;;;;;;271.23;253.70;;;16.30;99.90;;;;;;5058844;28;20786;-84
2021/09/18 01:45:20;;;;;;;226.50;210.73;;;16.20;99.90;;;;;;5040915;28;20786;-84
2021/09/18 01:47:51;;;;;;;229.97;213.60;;;16.20;99.90;;;;;;5041257;28;20987;-84
2021/09/18 01:50:39;;;;;;;257.80;241.03;;;16.20;99.90;;;;;;5058803;28;20396;-84
2021/09/18 01:53:07;;;;;;;228.77;211.53;;;16.30;99.90;;;;;;5058569;28;20420;-84
2021/09/18 01:55:34;;;;;;;246.03;229.53;;;16.20;99.90;;;;;;5212410;22;21015;-84
2021/09/18 01:58:01;;;;;;;218.67;203.00;;;16.20;99.90;;;;;;5058272;28;20767;-85
2021/09/18 02:00:27;;;;;;;218.73;202.13;;;16.20;99.90;;;;;;5058203;28;20393;-85
2021/09/18 02:02:54;;;;;;;227.50;210.93;;;16.10;99.90;;;;;;5058417;28;20856;-84
2021/09/18 02:05:25;;;;;;;210.67;195.27;;;16.20;99.90;;;;;;5058054;28;20484;-85
2021/09/18 02:07:52;;;;;;;228.17;211.83;;;16.20;99.90;;;;;;5058800;28;20426;-84
2021/09/18 02:10:20;;;;;;;238.17;221.07;;;16.20;99.90;;;;;;5040153;28;20447;-84
2021/09/18 02:12:46;;;;;;;212.53;196.33;;;16.20;99.90;;;;;;5057939;28;20416;-85
2021/09/18 02:15:14;;;;;;;237.67;221.47;;;16.20;99.90;;;;;;5039357;28;20409;-84
2021/09/18 02:17:39;;;;;;;220.87;205.07;;;16.20;99.90;;;;;;5057307;28;20177;-84
2021/09/18 02:20:08;;;;;;;204.93;189.67;;;16.20;99.90;;;;;;5039963;28;20461;-84
2021/09/18 02:22:34;;;;;;;213.53;198.07;;;16.10;99.90;;;;;;5057982;28;20257;-84
2021/09/18 02:24:59;;;;;;;215.83;199.13;;;16.10;99.90;;;;;;5057630;28;20429;-84
2021/09/18 02:27:25;;;;;;;239.73;223.43;;;16.10;99.90;;;;;;5039750;28;20612;-84
2021/09/18 02:29:51;;;;;;;269.17;251.33;;;16.10;99.90;;;;;;5057546;28;20240;-84
2021/09/18 02:32:16;;;;;;;257.27;239.73;;;16.10;99.90;;;;;;5057321;28;20204;-84
2021/09/18 02:34:42;;;;;;;270.00;252.63;;;16.00;99.90;;;;;;5058244;28;20169;-84
2021/09/18 02:37:08;;;;;;;271.33;254.00;;;16.00;99.90;;;;;;5057872;28;20189;-84
2021/09/18 02:39:33;;;;;;;259.10;241.97;;;16.00;99.90;;;;;;5057943;28;20170;-84
2021/09/18 02:41:59;;;;;;;276.43;259.03;;;15.90;99.90;;;;;;5057824;28;20165;-84
2021/09/18 02:44:25;;;;;;;253.20;236.47;;;15.90;99.90;;;;;;5057876;28;20174;-84
2021/09/18 02:46:50;;;;;;;258.57;241.47;;;15.90;99.90;;;;;;5058162;28;20277;-85
2021/09/18 02:49:16;;;;;;;261.20;243.80;;;15.90;99.90;;;;;;5057526;28;20170;-84
2021/09/18 02:51:42;;;;;;;290.10;271.93;;;15.80;99.90;;;;;;5057112;28;20195;-84
2021/09/18 02:54:08;;;;;;;284.37;266.73;;;15.80;99.90;;;;;;5057490;28;20765;-84
2021/09/18 02:56:33;;;;;;;245.93;228.83;;;15.80;99.90;;;;;;5057505;28;20183;-84
2021/09/18 02:58:59;;;;;;;266.63;249.30;;;15.80;99.90;;;;;;5057015;28;20209;-84
2021/09/18 03:01:25;;;;;;;300.90;282.50;;;15.70;99.90;;;;;;5057044;28;20271;-84
2021/09/18 03:03:51;;;;;;;296.27;278.27;;;15.70;99.90;;;;;;5057386;28;20642;-84
2021/09/18 03:06:16;;;;;;;323.50;304.10;;;15.70;99.90;;;;;;5057240;28;20185;-84
2021/09/18 03:08:42;;;;;;;301.03;283.07;;;15.70;99.90;;;;;;5057772;28;20201;-84
2021/09/18 03:11:08;;;;;;;293.80;275.63;;;15.70;99.90;;;;;;5056706;28;20279;-84
2021/09/18 03:13:35;;;;;;;339.03;319.50;;;15.60;99.90;;;;;;5057213;28;20166;-84
2021/09/18 03:16:02;;;;;;;280.47;262.47;;;15.60;99.90;;;;;;5039405;28;20219;-84
2021/09/18 03:18:28;;;;;;;300.50;282.23;;;15.60;99.90;;;;;;5056823;28;20888;-84
2021/09/18 03:20:54;;;;;;;258.30;241.43;;;15.60;99.90;;;;;;5056783;28;20446;-84
2021/09/18 03:23:20;;;;;;;318.37;299.00;;;15.50;99.90;;;;;;5056861;28;20175;-84
2021/09/18 03:25:45;;;;;;;320.50;301.60;;;15.50;99.90;;;;;;5056883;28;20655;-84
2021/09/18 03:28:14;;;;;;;328.20;309.43;;;15.50;99.90;;;;;;5057589;28;20198;-84
2021/09/18 03:30:40;;;;;;;310.67;292.07;;;15.50;99.90;;;;;;5060859;28;20217;-84
2021/09/18 03:33:05;;;;;;;279.63;262.10;;;15.50;99.90;;;;;;5043576;28;20423;-84
2021/09/18 03:35:31;;;;;;;280.47;262.77;;;15.50;99.90;;;;;;5043186;28;20174;-84
2021/09/18 03:37:57;;;;;;;299.33;280.83;;;15.50;99.90;;;;;;5060594;28;20185;-84
2021/09/18 03:40:22;;;;;;;305.13;286.23;;;15.40;99.90;;;;;;5042706;28;20509;-84
2021/09/18 03:42:48;;;;;;;293.53;275.23;;;15.40;99.90;;;;;;5060353;28;20157;-84
2021/09/18 03:45:14;;;;;;;296.97;278.43;;;15.40;99.90;;;;;;5060340;28;20250;-84
2021/09/18 03:47:39;;;;;;;340.60;321.03;;;15.40;99.90;;;;;;5060601;28;20189;-84
2021/09/18 03:50:08;;;;;;;327.60;308.23;;;15.30;99.90;;;;;;5060545;28;20197;-84
2021/09/18 03:52:36;;;;;;;284.90;266.60;;;15.30;99.90;;;;;;5042927;28;20265;-84
2021/09/18 03:55:02;;;;;;;277.37;259.63;;;15.30;99.90;;;;;;5060548;28;20518;-84
2021/09/18 03:57:28;;;;;;;300.77;282.07;;;15.30;99.90;;;;;;5060846;28;20419;-84
2021/09/18 03:59:54;;;;;;;275.70;257.93;;;15.30;99.90;;;;;;5042723;28;20411;-84
2021/09/18 04:02:20;;;;;;;274.60;257.33;;;15.20;99.90;;;;;;5060969;28;20169;-84
2021/09/18 04:04:45;;;;;;;286.90;268.57;;;15.20;99.90;;;;;;5060284;28;20709;-84
2021/09/18 04:07:11;;;;;;;256.03;238.70;;;15.20;99.90;;;;;;5060971;28;20529;-84
2021/09/18 04:09:37;;;;;;;275.20;257.63;;;15.20;99.90;;;;;;5060769;28;20175;-84
2021/09/18 04:12:02;;;;;;;285.07;266.17;;;15.20;99.90;;;;;;5060554;28;20189;-84
2021/09/18 04:14:28;;;;;;;304.20;285.63;;;15.20;99.90;;;;;;5060224;28;20628;-84
2021/09/18 04:16:54;;;;;;;268.53;250.77;;;15.20;99.90;;;;;;5042596;28;20635;-84
2021/09/18 04:19:20;;;;;;;261.50;244.30;;;15.20;99.90;;;;;;5059598;28;20410;-84
2021/09/18 04:21:46;;;;;;;312.23;293.07;;;15.20;99.90;;;;;;5060239;28;20208;-84
2021/09/18 04:24:11;;;;;;;293.80;275.40;;;15.10;99.90;;;;;;5059959;28;20176;-84
2021/09/18 04:26:37;;;;;;;282.70;264.90;;;15.20;99.90;;;;;;5059286;28;20193;-84
2021/09/18 04:29:03;;;;;;;272.63;255.00;;;15.10;99.90;;;;;;5059381;28;20169;-84
2021/09/18 04:31:28;;;;;;;273.03;255.70;;;15.10;99.90;;;;;;5041796;28;20200;-84
2021/09/18 04:33:54;;;;;;;275.23;257.13;;;15.10;99.90;;;;;;5041796;28;20222;-84
2021/09/18 04:36:20;;;;;;;252.50;235.83;;;15.10;99.90;;;;;;5059579;28;20184;-84
2021/09/18 04:38:46;;;;;;;300.43;281.97;;;15.10;99.90;;;;;;5060162;28;20193;-84
2021/09/18 04:41:12;;;;;;;275.53;257.53;;;15.10;99.90;;;;;;5040869;28;20445;-84
2021/09/18 04:43:38;;;;;;;265.67;248.67;;;15.00;99.90;;;;;;5041831;28;20176;-84
2021/09/18 04:46:04;;;;;;;307.03;288.23;;;15.00;99.90;;;;;;5041699;28;20227;-83
2021/09/18 04:48:30;;;;;;;266.27;249.07;;;15.00;99.90;;;;;;5059519;28;20260;-84
2021/09/18 04:50:56;;;;;;;260.50;243.27;;;15.00;99.90;;;;;;5041430;28;20451;-84
2021/09/18 04:53:22;;;;;;;274.97;257.33;;;15.00;99.90;;;;;;5059318;28;20402;-84
2021/09/18 04:55:48;;;;;;;300.97;281.67;;;14.90;99.90;;;;;;5040800;28;20439;-84
2021/09/18 04:58:14;;;;;;;296.30;277.93;;;14.90;99.90;;;;;;5040522;28;20446;-84
2021/09/18 05:00:40;;;;;;;281.43;263.87;;;14.90;99.90;;;;;;5041364;28;20268;-84
2021/09/18 05:03:07;;;;;;;319.60;300.43;;;14.90;99.90;;;;;;5059258;28;20913;-84
2021/09/18 05:05:32;;;;;;;280.43;262.43;;;14.90;99.90;;;;;;5058692;28;20171;-84
2021/09/18 05:07:58;;;;;;;307.17;288.70;;;14.90;99.90;;;;;;5059304;28;20462;-84
2021/09/18 05:10:24;;;;;;;252.37;235.23;;;14.90;99.90;;;;;;5059108;28;20164;-84
2021/09/18 05:12:50;;;;;;;302.70;284.23;;;14.80;99.90;;;;;;5059765;28;20173;-84
2021/09/18 05:15:15;;;;;;;282.80;265.10;;;14.80;99.90;;;;;;5058535;28;20434;-84
2021/09/18 05:17:41;;;;;;;306.90;288.20;;;14.80;99.90;;;;;;5058670;28;20180;-84
2021/09/18 05:20:07;;;;;;;306.93;288.13;;;14.80;99.90;;;;;;5040844;28;20196;-84
2021/09/18 05:22:33;;;;;;;324.40;305.20;;;14.80;99.90;;;;;;5058226;28;20250;-84
2021/09/18 05:24:59;;;;;;;296.87;278.70;;;14.80;99.90;;;;;;5040288;28;20809;-84
2021/09/18 05:27:25;;;;;;;287.07;269.10;;;14.80;99.90;;;;;;5058287;28;20682;-84
2021/09/18 05:29:51;;;;;;;304.10;285.40;;;14.80;99.90;;;;;;5058516;28;20407;-84
2021/09/18 05:32:17;;;;;;;308.77;290.40;;;14.80;99.90;;;;;;5058621;28;20224;-84
2021/09/18 05:34:42;;;;;;;302.53;284.07;;;14.70;99.90;;;;;;5058057;28;20690;-84
2021/09/18 05:37:08;;;;;;;270.80;253.10;;;14.80;99.90;;;;;;5041106;28;20189;-84
2021/09/18 05:39:34;;;;;;;257.53;240.37;;;14.70;99.90;;;;;;5058804;28;20532;-84
2021/09/18 05:42:00;;;;;;;293.90;275.77;;;14.70;99.90;;;;;;5059035;28;20205;-84
2021/09/18 05:44:25;;;;;;;271.10;253.17;;;14.70;99.90;;;;;;5058510;28;20701;-84
2021/09/18 05:46:51;;;;;;;264.93;248.03;;;14.80;99.90;;;;;;5040947;28;20339;-84
2021/09/18 05:49:17;;;;;;;241.57;224.93;;;14.80;99.90;;;;;;5059764;28;20228;-84
2021/09/18 05:51:42;;;;;;;258.13;240.50;;;14.80;99.90;;;;;;5059423;28;20205;-84
2021/09/18 05:54:08;;;;;;;249.80;232.57;;;14.80;99.90;;;;;;5058973;28;20262;-84
2021/09/18 05:56:34;;;;;;;222.73;205.90;;;14.80;99.90;;;;;;5041580;28;20275;-84
2021/09/18 05:59:03;;;;;;;233.93;217.23;;;14.80;99.90;;;;;;5059261;28;20184;-84
2021/09/18 06:01:29;;;;;;;236.97;220.43;;;14.80;99.90;;;;;;5058449;28;20165;-84
2021/09/18 06:03:55;;;;;;;260.20;242.90;;;14.90;99.90;;;;;;5059031;28;20403;-84
2021/09/18 06:06:21;;;;;;;239.93;221.90;;;14.90;99.90;;;;;;5040651;28;20442;-84
2021/09/18 06:08:47;;;;;;;245.00;226.10;;;14.90;99.90;;;;;;5059202;28;20168;-84
2021/09/18 06:11:12;;;;;;;300.80;280.17;;;14.80;99.90;;;;;;5059027;28;20449;-84
2021/09/18 06:13:38;;;;;;;439.03;410.57;;;14.90;99.90;;;;;;5040606;28;20250;-84
2021/09/18 06:16:05;;;;;;;488.87;457.53;;;14.90;99.90;;;;;;5040200;28;20177;-84
2021/09/18 06:18:30;;;;;;;536.07;501.07;;;14.90;99.90;;;;;;5059129;28;20883;-84
2021/09/18 06:20:59;;;;;;;449.80;420.47;;;14.90;99.90;;;;;;5058193;28;20406;-84
2021/09/18 06:23:27;;;;;;;487.93;455.43;;;15.00;99.90;;;;;;5058093;28;20600;-84
2021/09/18 06:25:54;;;;;;;520.10;486.93;;;14.90;99.90;;;;;;5058662;28;20802;-84
2021/09/18 06:28:19;;;;;;;557.17;520.17;;;14.90;99.90;;;;;;5058653;28;20772;-84
2021/09/18 06:30:46;;;;;;;556.10;520.50;;;15.00;99.90;;;;;;5058608;28;20455;-84
2021/09/18 06:33:11;;;;;;;561.77;525.53;;;15.00;99.90;;;;;;5058030;28;20180;-84
2021/09/18 06:35:37;;;;;;;544.27;509.77;;;15.10;99.90;;;;;;5058000;28;20399;-84
2021/09/18 06:38:03;;;;;;;555.00;518.93;;;15.10;99.90;;;;;;5058361;28;20303;-84
2021/09/18 06:40:29;;;;;;;550.93;515.30;;;15.10;99.90;;;;;;5040310;28;20176;-84
2021/09/18 06:42:55;;;;;;;525.43;491.13;;;15.20;99.90;;;;;;5058334;28;20435;-83
2021/09/18 06:45:21;;;;;;;571.07;533.97;;;15.20;99.90;;;;;;5058726;28;20399;-84
2021/09/18 06:47:46;;;;;;;553.27;517.93;;;15.20;99.90;;;;;;5040001;28;20193;-83
2021/09/18 06:50:12;;;;;;;589.67;551.73;;;15.30;99.90;;;;;;5040503;28;20233;-84
2021/09/18 06:52:38;;;;;;;537.80;504.23;;;15.30;99.90;;;;;;5040372;28;20284;-84
2021/09/18 06:55:04;;;;;;;527.70;493.40;;;15.30;99.90;;;;;;5058198;28;20181;-84
2021/09/18 06:57:32;;;;;;;564.97;530.20;;;15.40;99.90;;;;;;5058915;28;20189;-84
2021/09/18 06:59:58;;;;;;;571.13;534.53;;;15.30;99.90;;;;;;5058226;28;20467;-84
2021/09/18 07:02:23;;;;;;;581.03;543.80;;;15.30;99.90;;;;;;5041490;28;20509;-84
2021/09/18 07:04:49;;;;;;;576.50;540.07;;;15.40;99.90;;;;;;5062624;28;20931;-84
2021/09/18 07:07:15;;;;;;;579.13;541.43;;;15.40;99.90;;;;;;5060531;28;20632;-83
2021/09/18 07:09:40;;;;;;;578.17;540.83;;;15.30;99.90;;;;;;5060241;28;20574;-83
2021/09/18 07:12:06;;;;;;;559.83;523.73;;;15.30;99.90;;;;;;5059537;28;20251;-83
2021/09/18 07:14:32;;;;;;;528.87;495.00;;;15.40;99.90;;;;;;5059819;28;20170;-83
2021/09/18 07:16:57;;;;;;;532.93;498.33;;;15.50;99.90;;;;;;5060414;28;20187;-83
2021/09/18 07:19:23;;;;;;;501.03;467.60;;;15.50;99.90;;;;;;5041898;28;20192;-83
2021/09/18 07:21:49;;;;;;;549.97;514.77;;;15.50;99.90;;;;;;5059951;28;20256;-83
2021/09/18 07:24:14;;;;;;;517.47;484.60;;;15.60;99.90;;;;;;5059521;28;20179;-83
2021/09/18 07:26:40;;;;;;;540.00;505.50;;;15.70;99.90;;;;;;5059168;28;20192;-83
2021/09/18 07:29:05;;;;;;;517.47;484.97;;;15.70;99.90;;;;;;5059665;28;20165;-83
2021/09/18 07:31:31;;;;;;;548.17;513.13;;;15.70;99.90;;;;;;5059111;28;20191;-83
2021/09/18 07:33:57;;;;;;;550.60;515.70;;;15.70;99.90;;;;;;5059055;28;20164;-83
2021/09/18 07:36:23;;;;;;;481.07;449.80;;;15.70;99.90;;;;;;5058809;28;20188;-83
2021/09/18 07:38:49;;;;;;;518.47;486.30;;;15.60;99.90;;;;;;5041009;28;20166;-83
2021/09/18 07:41:15;;;;;;;545.37;511.37;;;15.50;99.90;;;;;;5058592;28;20522;-83
2021/09/18 07:43:42;;;;;;;581.40;543.97;;;15.50;99.90;;;;;;5058704;28;20174;-83
2021/09/18 07:46:08;;;;;;;581.10;544.03;;;15.60;99.90;;;;;;5058908;28;20936;-83
2021/09/18 07:48:34;;;;;;;566.37;530.60;;;15.70;99.90;;;;;;5040972;28;20465;-83
2021/09/18 07:51:00;;;;;;;543.93;509.43;;;15.70;99.90;;;;;;5058132;28;20444;-82
2021/09/18 07:53:26;;;;;;;568.20;532.57;;;15.60;99.90;;;;;;5058966;28;20411;-83
2021/09/18 07:55:52;;;;;;;536.93;503.13;;;15.60;99.90;;;;;;5040037;28;20440;-83
2021/09/18 07:58:18;;;;;;;581.77;545.97;;;15.70;99.90;;;;;;5058305;28;20421;-82
2021/09/18 08:00:45;;;;;;;571.63;535.70;;;15.80;99.90;;;;;;5058940;28;20222;-83
2021/09/18 08:03:13;;;;;;;551.47;517.83;;;15.90;99.90;;;;;;5049000;28;20998;-83
2021/09/18 08:05:38;;;;;;;568.87;532.97;;;16.00;99.90;;;;;;5041255;28;20416;-83
2021/09/18 08:08:04;;;;;;;518.03;485.03;;;16.00;99.90;;;;;;5057901;28;20609;-83
2021/09/18 08:10:34;;;;;;;537.00;503.47;;;16.10;99.90;;;;;;5057916;28;20313;-83
2021/09/18 08:13:00;;;;;;;473.13;443.13;;;16.10;99.90;;;;;;5057788;28;20202;-83
2021/09/18 08:15:26;;;;;;;467.17;438.07;;;16.20;99.90;;;;;;5057339;28;20424;-83
2021/09/18 08:17:51;;;;;;;510.77;478.33;;;16.30;99.90;;;;;;5057848;28;20508;-83
2021/09/18 08:20:18;;;;;;;523.90;491.03;;;16.30;99.90;;;;;;5057602;28;20187;-83
2021/09/18 08:22:44;;;;;;;491.53;460.90;;;16.40;99.90;;;;;;5057852;28;20163;-83
2021/09/18 08:25:10;;;;;;;531.57;497.87;;;16.40;99.90;;;;;;5057660;28;20490;-82
2021/09/18 08:27:37;;;;;;;546.47;511.57;;;16.40;99.90;;;;;;5057952;28;20486;-83
2021/09/18 08:30:08;;;;;;;552.93;518.97;;;16.40;99.90;;;;;;5039512;28;20467;-83
2021/09/18 08:32:34;;;;;;;505.00;474.10;;;16.50;99.90;;;;;;5039219;28;20448;-83
2021/09/18 08:34:59;;;;;;;499.23;467.57;;;16.60;99.90;;;;;;5039567;28;20413;-83
2021/09/18 08:37:26;;;;;;;501.23;469.23;;;16.60;99.90;;;;;;5039379;28;20510;-83
2021/09/18 08:39:51;;;;;;;479.10;448.13;;;16.60;99.90;;;;;;5057719;28;20633;-83
2021/09/18 08:42:17;;;;;;;438.63;410.40;;;16.60;99.90;;;;;;5058145;28;20493;-83
2021/09/18 08:44:43;;;;;;;472.37;442.70;;;16.70;99.90;;;;;;5039497;28;20648;-83
2021/09/18 08:47:11;;;;;;;516.90;485.00;;;16.70;99.90;;;;;;5039756;28;20434;-83
2021/09/18 08:49:37;;;;;;;521.20;485.03;;;16.80;99.90;;;;;;5056875;28;20175;-83
2021/09/18 08:52:05;;;;;;;518.07;485.37;;;16.80;99.90;;;;;;5057536;28;20986;-83
2021/09/18 08:54:30;;;;;;;496.13;465.07;;;17.00;99.90;;;;;;5040357;28;20949;-83
2021/09/18 08:56:56;;;;;;;493.83;462.53;;;17.10;99.90;;;;;;5057591;28;20421;-83
2021/09/18 08:59:22;;;;;;;427.67;400.17;;;17.10;99.90;;;;;;5058067;28;20242;-83
2021/09/18 09:02:17;;;;;;;423.43;395.97;;;17.30;99.90;;;;;;5058443;28;20407;-83
2021/09/18 09:04:44;;;;;;;387.33;361.63;;;17.30;99.90;;;;;;5057581;28;20172;-83
2021/09/18 09:07:12;;;;;;;401.40;374.57;;;17.40;99.90;;;;;;5057869;28;20426;-82
2021/09/18 09:10:05;;;;;;;417.80;390.53;;;17.50;99.90;;;;;;5058498;28;20401;-83
2021/09/18 09:12:38;;;;;;;348.23;323.87;;;17.60;99.90;;;;;;5037351;28;20443;-83
2021/09/18 09:15:24;;;;;;;335.10;311.13;;;17.70;99.90;;;;;;5058138;28;20921;-83
2021/09/18 09:17:52;;;;;;;325.40;302.07;;;17.80;99.90;;;;;;5057642;28;20415;-83
2021/09/18 09:20:35;;;;;;;378.60;352.90;;;17.70;99.90;;;;;;5057856;28;20739;-83
2021/09/18 09:23:03;;;;;;;388.33;362.00;;;17.70;99.90;;;;;;5058057;28;20471;-83
2021/09/18 09:25:34;;;;;;;380.13;354.70;;;17.70;99.90;;;;;;5058179;28;20396;-85
2021/09/18 09:28:48;;;;;;;352.13;327.07;;;17.70;99.90;;;;;;5042799;28;20501;-88
2021/09/18 09:31:26;;;;;;;249.57;230.50;;;17.90;99.90;;;;;;5061278;28;20434;-87
2021/09/18 09:34:05;;;;;;;249.53;230.00;;;18.10;99.90;;;;;;5043616;28;20448;-86
2021/09/18 09:36:43;;;;;;;217.80;200.43;;;18.20;99.90;;;;;;5060821;28;20415;-87
2021/09/18 09:39:11;;;;;;;194.13;176.90;;;18.40;99.90;;;;;;5061050;28;20750;-88
2021/09/18 09:41:42;;;;;;;171.27;155.03;;;18.50;99.90;;;;;;5042942;28;20422;-88
2021/09/18 09:44:15;;;;;;;172.77;156.40;;;18.60;99.90;;;;;;5041200;28;20399;-88
2021/09/18 09:46:41;;;;;;;184.87;168.63;;;18.70;99.90;;;;;;5058750;28;20434;-87
2021/09/18 09:49:21;;;;;;;196.70;179.87;;;18.80;99.90;;;;;;5056584;28;20486;-87
2021/09/18 09:51:47;;;;;;;217.07;199.40;;;18.90;99.90;;;;;;5036935;28;20458;-88
2021/09/18 09:54:21;;;;;;;216.97;199.60;;;19.10;99.90;;;;;;5054691;28;20446;-88
2021/09/18 09:56:47;;;;;;;206.03;188.97;;;19.20;99.90;;;;;;5057682;28;20268;-87
2021/09/18 09:59:27;;;;;;;217.90;200.23;;;19.30;99.90;;;;;;5058809;28;20399;-89
2021/09/18 10:01:54;;;;;;;321.87;300.63;;;19.60;99.90;;;;;;5037520;28;20435;-88
2021/09/18 10:04:19;;;;;;;268.23;249.00;;;19.70;99.90;;;;;;5040054;28;20937;-87
2021/09/18 10:06:46;;;;;;;278.53;258.43;;;19.80;99.90;;;;;;5055562;28;20423;-88
2021/09/18 10:09:15;;;;;;;226.03;207.93;;;19.80;99.90;;;;;;5056042;28;20309;-88
2021/09/18 10:11:40;;;;;;;318.70;297.00;;;19.90;99.90;;;;;;5055689;28;20468;-90
2021/09/18 10:14:14;;;;;;;426.20;399.70;;;20.00;99.90;;;;;;5036544;28;20914;-87
2021/09/18 10:16:41;;;;;;;441.03;412.63;;;20.10;99.90;;;;;;5035307;28;20556;-89
2021/09/18 10:19:09;;;;;;;457.83;430.03;;;20.10;99.90;;;;;;5036121;28;20407;-88
2021/09/18 10:24:26;;;;;;;464.40;437.10;;;20.20;99.90;;;;;;5053712;28;20821;-87
2021/09/18 10:27:19;;;;;;;418.27;392.50;;;20.20;99.90;;;;;;5054187;28;20510;-89
2021/09/18 10:29:52;;;;;;;322.73;300.23;;;20.30;99.90;;;;;;5036777;28;20991;-88
2021/09/18 10:32:19;;;;;;;307.07;285.83;;;20.50;99.90;;;;;;5036709;28;20459;-88
2021/09/18 10:34:49;;;;;;;362.37;338.17;;;20.50;99.90;;;;;;5037221;28;20787;-88
2021/09/18 10:37:35;;;;;;;241.30;221.17;;;20.70;99.90;;;;;;5039233;28;20800;-88
2021/09/18 10:40:08;;;;;;;130.83;116.47;;;21.00;99.90;;;;;;5055903;28;20393;-88
2021/09/18 10:42:38;;;;;;;116.27;80.00;;;21.20;99.90;;;;;;5019480;28;20403;-88
2021/09/18 10:45:05;;;;;;;106.77;64.90;;;21.40;99.90;;;;;;5053919;28;20422;-87
2021/09/18 10:47:47;;;;;;;103.77;53.47;;;21.30;99.90;;;;;;5053092;28;20451;-88
2021/09/18 10:50:22;;;;;;;96.47;45.40;;;21.20;99.90;;;;;;5035325;28;20396;-88
2021/09/18 10:53:06;;;;;;;103.70;66.00;;;21.30;99.90;;;;;;5037168;28;20493;-88
2021/09/18 10:55:52;;;;;;;194.60;178.37;;;21.50;99.90;;;;;;5053610;28;20437;-88
2021/09/18 10:58:18;;;;;;;169.00;153.77;;;21.80;99.90;;;;;;5036120;28;20816;-87
2021/09/18 11:00:52;;;;;;;243.60;226.33;;;21.70;99.90;;;;;;5035417;28;20467;-88
2021/09/18 11:03:45;;;;;;;232.80;214.90;;;22.00;99.90;;;;;;5035685;28;20901;-88
2021/09/18 11:06:40;;;;;;;129.37;115.47;;;21.80;99.90;;;;;;5035945;28;20434;-87
2021/09/18 11:09:06;;;;;;;127.23;113.23;;;22.00;99.90;;;;;;5039723;28;20419;-87
2021/09/18 11:11:32;;;;;;;128.30;104.17;;;22.30;99.90;;;;;;5039605;28;20957;-88
2021/09/18 11:14:00;;;;;;;108.10;78.27;;;22.40;99.90;;;;;;5036503;28;20774;-88
2021/09/18 11:16:28;;;;;;;231.33;213.80;;;22.50;99.90;;;;;;5055452;28;20784;-88
2021/09/18 11:19:15;;;;;;;232.63;215.47;;;22.60;99.90;;;;;;5055422;28;20766;-88
2021/09/18 11:21:44;;;;;;;220.43;203.67;;;22.60;99.90;;;;;;5036172;28;20411;-88
2021/09/18 11:24:15;;;;;;;177.47;162.10;;;22.40;98.20;;;;;;5035371;28;20426;-88
2021/09/18 11:26:50;;;;;;;261.60;243.50;;;22.00;98.80;;;;;;5035640;28;20981;-88
2021/09/18 11:29:33;;;;;;;243.80;226.27;;;21.60;99.90;;;;;;5035309;28;20391;-88
2021/09/18 11:32:19;;;;;;;112.67;82.77;;;21.60;99.90;;;;;;5035326;28;20454;-88
2021/09/18 11:34:50;;;;;;;199.90;183.77;;;21.50;99.90;;;;;;5053341;28;20389;-87
2021/09/18 11:37:20;;;;;;;130.13;116.83;;;21.70;99.90;;;;;;5056045;28;20423;-88
2021/09/18 11:40:01;;;;;;;114.23;101.83;;;21.60;99.90;;;;;;5054958;28;20403;-87
2021/09/18 11:42:38;;;;;;;129.20;116.17;;;21.60;99.90;;;;;;5055311;28;20742;-87
2021/09/18 11:45:10;;;;;;;155.93;141.83;;;21.70;99.90;;;;;;5055805;28;20422;-87
2021/09/18 11:47:40;;;;;;;104.23;76.50;;;21.60;99.90;;;;;;5038675;28;20431;-87
2021/09/18 11:50:33;;;;;;;97.47;64.50;;;21.50;99.90;;;;;;5038257;28;20457;-87
2021/09/18 11:53:00;;;;;;;95.87;57.37;;;21.50;99.90;;;;;;5045581;28;20778;-87
2021/09/18 11:55:38;;;;;;;96.07;66.80;;;21.70;99.90;;;;;;5064046;28;20422;-88
2021/09/18 11:58:08;;;;;;;102.57;74.93;;;22.00;99.90;;;;;;5046559;28;20973;-88
2021/09/18 12:00:42;;;;;;;197.00;181.17;;;22.50;99.90;;;;;;5062029;28;20396;-88
2021/09/18 12:03:08;;;;;;;182.73;167.33;;;23.00;99.60;;;;;;5063292;28;20462;-88
2021/09/18 12:05:33;;;;;;;213.67;197.47;;;23.10;95.70;;;;;;5062104;28;20438;-88
2021/09/18 12:07:59;;;;;;;169.83;155.17;;;23.00;95.70;;;;;;5044107;28;20189;-87
2021/09/18 12:10:25;;;;;;;210.43;194.93;;;23.00;95.50;;;;;;5062804;28;20230;-88
2021/09/18 12:13:00;;;;;;;256.13;238.27;;;22.80;95.00;;;;;;5064723;28;20914;-87
2021/09/18 12:15:36;;;;;;;233.67;217.33;;;22.60;99.90;;;;;;5044532;28;20153;-87
2021/09/18 12:18:04;;;;;;;229.80;212.93;;;22.40;99.90;;;;;;5045116;28;20430;-88